Messwerte Cienfuegos

Temperatur

Temperatur
°C
1573513200 18.00 18.00 25
1573516800 19.00 19.00 24
1573520400 20.00 20.00 23
1573524000 21.00 21.00 23
1573527600 22.00 22.00 23
1573531200 23.00 23.00 22
1573534800 0.00 0.00 22
1573538400 1.00 1.00 22
1573542000 2.00 2.00 22
1573545600 3.00 3.00
1573549200 4.00 4.00
1573552800 5.00 5.00
1573556400 6.00 6.00
1573560000 7.00 7.00
1573563600 8.00 8.00
1573567200 9.00 9.00 26
1573570800 10.00 10.00
1573574400 11.00 11.00
1573578000 12.00 12.00 30
1573581600 13.00 13.00 30
1573585200 14.00 14.00 30
1573588800 15.00 15.00 30
1573592400 16.00 16.00 30
1573596000 17.00 17.00 28

Aktuellste Messwerte

Temperatur
26 °C
Feuchtigkeit
85 %
Wind
5 km/hWindrichtung: Südwest
Luftdruck
1012 hPa
Messzeit: 12. November 2019, 18.00Datenquelle: METAR

Weitere Messstationen in der Nähe

Messstation Temperatur Entfernung
Abel Santamaria 25 °C 61 km
Playa Giron 28 °C 65 km
Varadero 25 °C 143 km
Cayo Coco 26 °C 217 km
Havanna 26 °C 225 km
Camagüey 26 °C 275 km
Cayman Brac 28 °C 280 km

Wind

Windrichtung Böen Mittelwind
° km/h km/h
1573513200 18.00 17.00 - 18.00 70° 10
1573516800 19.00 18.00 - 19.00 60° 10
1573520400 20.00 19.00 - 20.00 70° 15
1573524000 21.00 20.00 - 21.00 70° 15
1573527600 22.00 21.00 - 22.00 80° 10
1573531200 23.00 22.00 - 23.00 70° 10
1573534800 0.00 23.00 - 0.00 70° 10
1573538400 1.00 0.00 - 1.00 80° 10
1573542000 2.00 1.00 - 2.00 70° 10
1573545600 3.00 2.00 - 3.00
1573549200 4.00 3.00 - 4.00
1573552800 5.00 4.00 - 5.00
1573556400 6.00 5.00 - 6.00
1573560000 7.00 6.00 - 7.00
1573563600 8.00 7.00 - 8.00
1573567200 9.00 8.00 - 9.00 5
1573570800 10.00 9.00 - 10.00
1573574400 11.00 10.00 - 11.00
1573578000 12.00 11.00 - 12.00 220° 10
1573581600 13.00 12.00 - 13.00 220° 15
1573585200 14.00 13.00 - 14.00 230° 10
1573588800 15.00 14.00 - 15.00 240° 10
1573592400 16.00 15.00 - 16.00 230° 10
1573596000 17.00 16.00 - 17.00 240° 5

Ihre Wetterstation

Fehlt Ihre Wetterstation auf unserem Portal?

Schreiben Sie an network@meteonews.ch